Procurement Request

Procurement RequestsSee More >>

Date Product Name Quantity Purity Contact
2020-01-16 lithium anion of dimethyl methylphosphonate34939-91-8 5.00g 99% Message
2020-01-16 cis-cyclo(Ala-Phe)15180-22-0 0.02g 98% Message
2020-01-16 2,2,2-Tribromoethanol(75-80-9)75-80-9 1.00kg 98% Message
2020-01-16 Methyldiallylamine2424-01-3 1.00kg 99% Message
2020-01-16 3-(4,6,11-trioxa-1-aza-5-silabicyclo[3.3.3]undecan-5-yl)propan-1-amine(17869-27-1)17869-27-1 1000.00ml 95% Message
2020-01-16 6-methyl-heptanoyl chloride70767-37-2 5.00g 98% Message
2020-01-16 (2-oxo-1,3-dioxolan-4-yl)methyl 2-methylprop-2-enoate13818-44-5 1.00kg 99% Message
2020-01-16 ethanolamine141-43-5 4000.00L 99% Message
2020-01-16 hypericin548-04-9 100.00g 96% Message
2020-01-16 hypericin548-04-9 5.00g 90% Message
2020-01-16 (+)-gallocatechin1617-55-6 500.00g 98% Message
2020-01-16 perfluoropentane678-26-2 10.00g 99% Message
2020-01-16 perfluoropentane678-26-2 25.00g 99% Message
2020-01-16 prothioconazole(178928-70-6)178928-70-6 1.00kg 95% Message
2020-01-16 hypodiphosphoric acid7803-60-3 5.00L ≧98% Message
2020-01-16 1,2-DICHLOROHEXANE2162-92-7 1000.00kg 99% Message
2020-01-16 hypodiphosphoric acid7803-60-3 25.00L ≧98% Message
2020-01-16 hypodiphosphoric acid7803-60-3 25.00L 99% Message
2020-01-16 Lauric Acid Diethanolamide120-40-1 25.00g 98% Message
2020-01-16 2,3,4-Trifluorobenzoic acid(61079-72-9)61079-72-9 1.00kg 98% Message
2020-01-16 1,4-Butanediol diglycidyl ether2425-79-8 1.00kg 99% Message
2020-01-16 Cyclophosphamide monohydrate6055-19-2 1.00g 98.5% Message
2020-01-16 LYSO-GANGLIOSIDE GM1, BOVINE(171483-40-2)171483-40-2 100.00mg 95% Message
2020-01-16 (E,E,E)-geranylgeraniol24034-73-9 5.00kg 97.0% Message
2020-01-16 [Bodipyl-FL]-1,4-Dihydropyridine3337-17-5 100.00mg 95% Message
2020-01-16 12-AMINO-1-DODECANESULFONIC ACID160799-46-2 1.00g 98% Message
2020-01-16 12-aminododecane-1-sulfonic acid160799-46-2 10.00g 95% Message
2020-01-16 2,3-dimethyl-2-propan-2-ylbutanenitrile55897-64-8 10.00g 98% Message
2020-01-16 1-hexene592-41-6 1000.00ton 98% Message
2020-01-16 2,3-dimethyl-2-propan-2-ylbutanenitrile55897-64-8 10.00g 99% Message
2020-01-16 Oxygen-18O232767-18-3 1.00L 99% Message
2020-01-16 2-Methyl-3-buten-2-ol115-18-4 2.00kg 97.0% Message
2020-01-16 cimetidine51481-61-9 2000.00kg 99% Message
2020-01-16 L-proline147-85-3 1.00kg 98% Message
2020-01-16 D-(+)-Trehalose dihydrate6138-23-4 1.00kg 99.9% Message
2020-01-16 benzoic acid;cyclohexanamine3129-92-8 100.00g 95% Message
2020-01-16 tetrakis(2-hydroxyethyl)azanium,hydroxide631-41-4 1.00ton >98% Message
2020-01-16 2-Deoxy-D-Glucose154-17-6 100.00g 99% Message
2020-01-16 phosphorus trichloride7719-12-2 1.00g 95% Message
2020-01-16 1,3-phenylenediamine108-45-2 5.00kg 99% Message
2020-01-16 Maytansine35846-53-8 10.00mg 99% Message
2020-01-16 Tri-N-Octylphosphine4731-53-7 1000.00kg 95% Message
2020-01-16 Tri-N-Octylphosphine4731-53-7 1000.00kg 90% Message
2020-01-16 Tri-N-Octylphosphine4731-53-7 1000.00kg 85.0% Message
2020-01-16 L-Aspartic acid, 3-(phenylmethyl)-, (3S)-(871123-98-7)871123-98-7 1.00g 98% Message
2020-01-16 Anthraquinone-2,7-Disulfonic Acid Disodium Salt853-67-8 25.00g 98% Message
2020-01-16 methyl methacrylate80-62-6 2.00kg 99.9% Message
2020-01-16 2,4,6-tribromophenol118-79-6 100.00g 98% Message
2020-01-16 1-[2,2-dichloro-1-(4-methoxyphenyl)ethyl]-4-methoxybenzene7388-31-0 5.00mg 96% Message
2020-01-16 (S)-2-Amino-4-methyl-1-((R)-2-methyloxiran-2-yl)pentan-1-one 2,2,2-trifluoroacetate247068-85-5 10.00g 99% Message

Daily Global Chemical News

US may become majority source for China’s crude imports after trade deal

SINGAPORE (ICIS)--The first phase trade deal between the US and China will need China to heavily expand purchases of US crude oil, and that could mean potentially over 60% of China’s additional crude imports in 2020 will be grabbed by the US, according to ICIS analysts.

2020-01-17Global Chemical News

Electrolyser selectively consumes carbon dioxide in unpurified flue gas

Method tackles kinetic and thermodynamic hurdles Researchers have developed a way to selectively reduce carbon dioxide directly from industrial waste gases.1 The method uses pressure and a clever catalyst design to avoid unwanted, competing reactions.

2020-01-17Global Chemical News

Car’s exhaust fumes could be used to clean up the recovery of metals

Process could make carbon capture cheaper by providing a use for trapped CO2

2020-01-17Global Chemical News

Flagship Shops

Hot Products

Recommended Suppliers